createdAt,value
2019-05-28T00:00:33.771Z,4.72
2019-05-28T00:02:59.882Z,4.42
2019-05-28T00:05:25.883Z,4.92
2019-05-28T00:07:51.922Z,4.92
2019-05-28T00:10:18.018Z,4.80
2019-05-28T00:12:44.159Z,5.33
2019-05-28T00:15:10.359Z,5.95
2019-05-28T00:17:36.811Z,6.35
2019-05-28T00:20:07.287Z,6.80
2019-05-28T00:22:33.189Z,8.28
2019-05-28T00:24:59.205Z,6.53
2019-05-28T00:27:25.324Z,4.95
2019-05-28T00:29:51.472Z,6.35
2019-05-28T00:32:17.580Z,4.40
2019-05-28T00:34:43.597Z,9.88
2019-05-28T00:37:09.591Z,5.67
2019-05-28T00:39:35.605Z,4.85
2019-05-28T00:42:01.803Z,7.42
2019-05-28T00:44:27.918Z,12.18
2019-05-28T00:46:54.114Z,7.37
2019-05-28T00:49:20.243Z,7.33
2019-05-28T00:51:46.337Z,6.70
2019-05-28T00:54:12.450Z,8.08
2019-05-28T00:56:38.954Z,5.53
2019-05-28T00:59:05.054Z,10.05
2019-05-28T01:01:31.069Z,7.65
2019-05-28T01:03:57.076Z,5.83
2019-05-28T01:06:23.127Z,6.12
2019-05-28T01:08:49.244Z,9.38
2019-05-28T01:11:15.137Z,6.92
2019-05-28T01:13:41.280Z,8.75
2019-05-28T01:16:07.270Z,8.40
2019-05-28T01:18:33.391Z,5.55
2019-05-28T01:20:59.401Z,6.58
2019-05-28T01:23:25.511Z,6.50
2019-05-28T01:25:51.507Z,5.85
2019-05-28T01:28:17.614Z,6.17
2019-05-28T01:30:54.910Z,5.12
2019-05-28T01:33:11.564Z,5.28
2019-05-28T01:35:37.491Z,8.40
2019-05-28T01:38:03.601Z,9.25
2019-05-28T01:40:29.730Z,6.75
2019-05-28T01:42:55.838Z,9.80
2019-05-28T01:45:21.929Z,7.22
2019-05-28T01:47:48.043Z,6.22
2019-05-28T01:50:15.978Z,8.33
2019-05-28T01:52:41.997Z,5.90
2019-05-28T01:55:08.339Z,5.42
2019-05-28T01:57:34.453Z,5.60
2019-05-28T02:00:00.501Z,5.40
2019-05-28T02:02:26.606Z,5.90
2019-05-28T02:04:52.774Z,6.97
2019-05-28T02:07:18.886Z,5.10
2019-05-28T02:09:44.999Z,9.55
2019-05-28T02:12:11.129Z,5.37
2019-05-28T02:14:37.239Z,5.97
2019-05-28T02:17:03.339Z,5.65
2019-05-28T02:19:29.344Z,5.97
2019-05-28T02:21:55.354Z,11.10
2019-05-28T02:24:21.390Z,6.53
2019-05-28T02:26:47.299Z,5.50
2019-05-28T02:29:13.342Z,7.25
2019-05-28T02:31:39.352Z,6.78
2019-05-28T02:34:05.387Z,6.90
2019-05-28T02:36:31.495Z,5.00
2019-05-28T02:38:57.642Z,7.87
2019-05-28T02:41:23.643Z,7.03
2019-05-28T02:43:49.784Z,8.30
2019-05-28T02:46:15.827Z,8.15
2019-05-28T02:48:41.942Z,6.37
2019-05-28T02:51:08.050Z,5.58
2019-05-28T02:53:34.193Z,9.55
2019-05-28T02:56:00.300Z,5.05
2019-05-28T02:58:32.323Z,8.20
2019-05-28T03:00:59.635Z,6.72
2019-05-28T03:03:29.158Z,7.53
2019-05-28T03:05:56.751Z,8.15
2019-05-28T03:08:22.855Z,15.58
2019-05-28T03:11:04.746Z,6.37
2019-05-28T03:13:16.797Z,8.03
2019-05-28T03:15:46.551Z,7.35
2019-05-28T03:18:15.657Z,6.97
2019-05-28T03:20:43.013Z,5.65
2019-05-28T03:23:10.221Z,7.03
2019-05-28T03:25:38.465Z,10.95
2019-05-28T03:28:04.575Z,9.20
2019-05-28T03:30:30.677Z,8.15
2019-05-28T03:32:57.432Z,9.20
2019-05-28T03:35:24.426Z,8.68
2019-05-28T03:37:53.152Z,8.98
2019-05-28T03:40:39.377Z,8.88
2019-05-28T03:43:05.487Z,8.25
2019-05-28T03:45:31.487Z,8.98
2019-05-28T03:47:57.386Z,9.33
2019-05-28T03:50:23.485Z,8.83
2019-05-28T03:52:49.426Z,7.17
2019-05-28T03:55:15.434Z,10.10
2019-05-28T03:57:41.336Z,10.25
2019-05-28T04:00:07.545Z,9.80
2019-05-28T04:02:33.452Z,10.58
2019-05-28T04:04:59.557Z,10.48
2019-05-28T04:07:25.637Z,9.50
2019-05-28T04:09:51.754Z,7.33
2019-05-28T04:12:18.160Z,7.95
2019-05-28T04:14:44.170Z,9.10
2019-05-28T04:17:10.211Z,9.30
2019-05-28T04:19:36.249Z,8.78
2019-05-28T04:22:02.352Z,7.75
2019-05-28T04:24:28.277Z,8.55
2019-05-28T04:26:54.248Z,9.45
2019-05-28T04:29:21.103Z,9.90
2019-05-28T04:31:47.113Z,12.05
2019-05-28T04:34:13.116Z,10.93
2019-05-28T04:36:39.024Z,12.03
2019-05-28T04:39:06.738Z,13.60
2019-05-28T04:41:32.844Z,12.37
2019-05-28T04:43:58.745Z,16.55
2019-05-28T04:46:24.667Z,13.65
2019-05-28T04:48:50.692Z,18.07
2019-05-28T04:51:16.799Z,16.10
2019-05-28T04:53:42.941Z,15.68
2019-05-28T04:56:08.848Z,14.85
2019-05-28T04:58:34.866Z,15.20
2019-05-28T05:01:00.817Z,14.25
2019-05-28T05:03:26.879Z,12.73
2019-05-28T05:05:52.882Z,14.78
2019-05-28T05:08:18.888Z,19.02
2019-05-28T05:10:45.000Z,15.13
2019-05-28T05:13:11.109Z,14.35
2019-05-28T05:15:37.118Z,13.85
2019-05-28T05:18:03.246Z,14.45
2019-05-28T05:20:29.168Z,16.27
2019-05-28T05:22:55.290Z,12.73
2019-05-28T05:25:21.386Z,14.40
2019-05-28T05:27:47.310Z,11.28
2019-05-28T05:30:13.919Z,11.55
2019-05-28T05:32:39.930Z,15.43
2019-05-28T05:35:06.241Z,12.93
2019-05-28T05:37:32.410Z,13.80
2019-05-28T05:39:58.451Z,11.45
2019-05-28T05:42:24.554Z,12.93
2019-05-28T05:44:50.693Z,12.25
2019-05-28T05:47:16.805Z,14.58
2019-05-28T05:49:42.834Z,11.85
2019-05-28T05:52:08.850Z,11.83
2019-05-28T05:54:34.784Z,12.58
2019-05-28T05:57:00.933Z,12.55
2019-05-28T05:59:26.967Z,13.10
2019-05-28T06:01:53.072Z,13.35
2019-05-28T06:04:19.084Z,13.58
2019-05-28T06:06:45.239Z,16.85
2019-05-28T06:09:11.379Z,15.85
2019-05-28T06:11:37.484Z,11.33
2019-05-28T06:14:04.028Z,14.68
2019-05-28T06:16:30.246Z,16.10
2019-05-28T06:18:56.431Z,15.60
2019-05-28T06:21:22.448Z,13.88
2019-05-28T06:23:48.387Z,19.85
2019-05-28T06:26:14.442Z,15.50
2019-05-28T06:28:40.433Z,14.85
2019-05-28T06:31:06.428Z,13.22
2019-05-28T06:33:32.444Z,12.13
2019-05-28T06:35:58.454Z,17.65
2019-05-28T06:38:25.578Z,14.15
2019-05-28T06:40:51.600Z,17.57
2019-05-28T06:43:17.527Z,14.20
2019-05-28T06:45:43.571Z,17.32
2019-05-28T06:48:09.575Z,17.12
2019-05-28T06:50:35.587Z,14.25
2019-05-28T06:53:01.488Z,16.82
2019-05-28T06:55:27.602Z,13.88
2019-05-28T06:57:53.715Z,14.23
2019-05-28T07:00:20.128Z,14.75
2019-05-28T07:02:46.276Z,14.70
2019-05-28T07:05:12.516Z,13.00
2019-05-28T07:07:38.519Z,12.23
2019-05-28T07:10:05.432Z,11.12
2019-05-28T07:12:31.441Z,12.47
2019-05-28T07:14:57.446Z,10.98
2019-05-28T07:17:23.556Z,13.88
2019-05-28T07:19:49.567Z,14.93
2019-05-28T07:22:15.677Z,12.37
2019-05-28T07:24:41.586Z,10.78
2019-05-28T07:27:07.691Z,11.88
2019-05-28T07:29:33.901Z,11.50
2019-05-28T07:31:59.916Z,12.40
2019-05-28T07:34:30.571Z,14.05
2019-05-28T07:36:53.968Z,10.50
2019-05-28T07:39:20.075Z,8.95
2019-05-28T07:41:46.023Z,9.88
2019-05-28T07:44:12.028Z,9.83
2019-05-28T07:46:38.049Z,9.63
2019-05-28T07:49:04.034Z,9.63
2019-05-28T07:51:30.063Z,14.10
2019-05-28T07:53:56.166Z,9.98
2019-05-28T07:56:22.300Z,12.95
2019-05-28T07:58:48.305Z,11.28
2019-05-28T08:01:14.335Z,10.13
2019-05-28T08:03:40.358Z,10.65
2019-05-28T08:06:18.515Z,10.30
2019-05-28T08:08:44.723Z,11.60
2019-05-28T08:11:10.865Z,11.30
2019-05-28T08:13:40.717Z,10.35
2019-05-28T08:16:18.604Z,13.35
2019-05-28T08:18:33.082Z,12.78
2019-05-28T08:20:59.138Z,12.10
2019-05-28T08:23:25.243Z,13.58
2019-05-28T08:25:51.256Z,11.95
2019-05-28T08:28:20.320Z,17.25
2019-05-28T08:30:45.415Z,12.20
2019-05-28T08:33:11.540Z,11.48
2019-05-28T08:35:37.689Z,10.70
2019-05-28T08:38:04.031Z,11.05
2019-05-28T08:40:30.346Z,10.45
2019-05-28T08:42:56.515Z,12.13
2019-05-28T08:45:22.602Z,11.97
2019-05-28T08:47:48.643Z,11.55
2019-05-28T08:50:32.735Z,13.38
2019-05-28T08:52:43.355Z,9.88
2019-05-28T08:55:09.813Z,13.38
2019-05-28T08:57:35.994Z,15.45
2019-05-28T09:00:08.302Z,14.85
2019-05-28T09:02:34.407Z,14.05
2019-05-28T09:05:00.574Z,11.35
2019-05-28T09:07:26.584Z,10.55
2019-05-28T09:09:52.623Z,13.70
2019-05-28T09:12:18.748Z,11.70
2019-05-28T09:14:55.959Z,10.95
2019-05-28T09:17:12.915Z,11.18
2019-05-28T09:19:39.030Z,9.58
2019-05-28T09:22:05.179Z,12.10
2019-05-28T09:24:31.291Z,16.07
2019-05-28T09:26:57.391Z,10.43
2019-05-28T09:29:23.405Z,9.93
2019-05-28T09:31:49.411Z,12.95
2019-05-28T09:34:15.659Z,12.55
2019-05-28T09:36:41.699Z,11.15
2019-05-28T09:39:07.833Z,14.58
2019-05-28T09:41:33.935Z,11.48
2019-05-28T09:44:00.090Z,12.43
2019-05-28T09:46:26.217Z,8.98
2019-05-28T09:48:52.358Z,13.78
2019-05-28T09:51:19.707Z,13.28
2019-05-28T09:53:45.819Z,8.85
2019-05-28T09:56:11.936Z,9.73
2019-05-28T09:58:37.964Z,11.18
2019-05-28T10:01:04.168Z,9.25
2019-05-28T10:03:30.311Z,7.95
2019-05-28T10:06:13.153Z,6.62
2019-05-28T10:08:24.243Z,9.25
2019-05-28T10:10:50.247Z,8.10
2019-05-28T10:13:16.356Z,6.33
2019-05-28T10:15:42.495Z,5.53
2019-05-28T10:18:08.466Z,8.13
2019-05-28T10:20:37.898Z,5.45
2019-05-28T10:23:02.622Z,5.42
2019-05-28T10:25:28.773Z,5.08
2019-05-28T10:28:00.756Z,4.08
2019-05-28T10:30:23.423Z,7.08
2019-05-28T10:32:49.535Z,3.17
2019-05-28T10:35:17.439Z,4.83
2019-05-28T10:37:43.554Z,4.10
2019-05-28T10:40:10.667Z,3.30
2019-05-28T10:42:36.711Z,5.78
2019-05-28T10:45:09.523Z,5.25
2019-05-28T10:47:35.627Z,9.20
2019-05-28T10:50:01.800Z,7.67
2019-05-28T10:52:27.894Z,4.83
2019-05-28T10:54:54.041Z,2.40
2019-05-28T10:57:20.147Z,2.67
2019-05-28T10:59:46.158Z,2.05
2019-05-28T11:02:12.450Z,3.10
2019-05-28T11:04:38.661Z,2.52
2019-05-28T11:07:04.784Z,1.87
2019-05-28T11:09:30.895Z,4.90
2019-05-28T11:11:57.013Z,1.40
2019-05-28T11:14:23.120Z,8.78
2019-05-28T11:16:49.126Z,5.00
2019-05-28T11:19:15.243Z,5.08
2019-05-28T11:21:41.372Z,7.22
2019-05-28T11:24:07.600Z,4.90
2019-05-28T11:26:33.744Z,3.08
2019-05-28T11:28:59.855Z,5.87
2019-05-28T11:31:25.863Z,5.15
2019-05-28T11:33:51.981Z,3.25
2019-05-28T11:36:18.094Z,2.05
2019-05-28T11:38:44.241Z,2.45
2019-05-28T11:41:10.443Z,2.25
2019-05-28T11:43:36.555Z,3.08
2019-05-28T11:46:02.663Z,3.60
2019-05-28T11:48:28.781Z,5.60
2019-05-28T11:50:54.896Z,3.25
2019-05-28T11:53:21.005Z,3.80
2019-05-28T11:55:47.033Z,6.03
2019-05-28T11:58:13.028Z,5.65
2019-05-28T12:00:39.367Z,2.95
2019-05-28T12:03:05.471Z,2.05
2019-05-28T12:05:31.593Z,4.90
2019-05-28T12:07:57.701Z,2.30
2019-05-28T12:10:24.411Z,3.70
2019-05-28T12:12:50.411Z,2.58
2019-05-28T12:15:17.328Z,3.25
2019-05-28T12:17:45.441Z,1.95
2019-05-28T12:20:13.989Z,2.10
2019-05-28T12:22:40.387Z,4.35
2019-05-28T12:25:08.096Z,5.80
2019-05-28T12:27:34.237Z,4.62
2019-05-28T12:30:00.364Z,3.35
2019-05-28T12:32:26.409Z,6.00
2019-05-28T12:34:52.507Z,6.95
2019-05-28T12:37:18.631Z,4.33
2019-05-28T12:39:44.632Z,4.67
2019-05-28T12:42:10.662Z,4.80
2019-05-28T12:44:42.114Z,2.08
2019-05-28T12:47:04.710Z,4.95
2019-05-28T12:49:30.739Z,6.58
2019-05-28T12:51:56.663Z,5.90
2019-05-28T12:54:22.671Z,3.08
2019-05-28T12:56:49.916Z,5.28
2019-05-28T12:59:15.920Z,8.48
2019-05-28T13:01:42.029Z,8.70
2019-05-28T13:04:08.216Z,6.05
2019-05-28T13:06:34.298Z,4.62
2019-05-28T13:09:00.368Z,3.80
2019-05-28T13:11:26.484Z,3.47
2019-05-28T13:13:52.505Z,3.35
2019-05-28T13:16:18.612Z,4.33
2019-05-28T13:18:44.612Z,4.20
2019-05-28T13:21:10.776Z,6.55
2019-05-28T13:23:36.849Z,5.17
2019-05-28T13:26:02.950Z,4.53
2019-05-28T13:28:28.855Z,1.70
2019-05-28T13:30:54.857Z,7.22
2019-05-28T13:33:20.858Z,3.60
2019-05-28T13:35:46.899Z,4.55
2019-05-28T13:38:26.221Z,5.30
2019-05-28T13:40:40.923Z,4.90
2019-05-28T13:43:07.069Z,3.22
2019-05-28T13:45:33.176Z,7.55
2019-05-28T13:47:59.289Z,6.95
2019-05-28T13:50:25.504Z,4.12
2019-05-28T13:52:51.631Z,6.35
2019-05-28T13:55:18.243Z,11.12
2019-05-28T13:57:44.300Z,2.05
2019-05-28T14:00:13.672Z,3.67
2019-05-28T14:02:40.103Z,3.17
2019-05-28T14:05:06.446Z,8.60
2019-05-28T14:07:32.479Z,3.40
2019-05-28T14:09:58.535Z,3.75
2019-05-28T14:12:24.648Z,2.80
2019-05-28T14:14:50.808Z,6.22
2019-05-28T14:17:17.024Z,4.28
2019-05-28T14:19:43.051Z,4.58
2019-05-28T14:22:09.269Z,3.00
2019-05-28T14:24:35.242Z,5.55
2019-05-28T14:27:01.117Z,2.62
2019-05-28T14:29:27.017Z,7.40
2019-05-28T14:31:53.135Z,6.53
2019-05-28T14:34:19.145Z,2.27
2019-05-28T14:36:45.097Z,3.90
2019-05-28T14:39:11.220Z,3.40
2019-05-28T14:41:37.247Z,6.05
2019-05-28T14:44:04.297Z,2.25
2019-05-28T14:46:30.302Z,2.83
2019-05-28T14:48:56.429Z,1.87
2019-05-28T14:51:22.474Z,19.35
2019-05-28T14:53:48.624Z,2.92
2019-05-28T14:56:14.637Z,7.83
2019-05-28T14:58:40.750Z,3.70
2019-05-28T15:01:06.653Z,4.87
2019-05-28T15:03:32.672Z,12.15
2019-05-28T15:05:58.702Z,2.58
2019-05-28T15:08:24.709Z,5.03
2019-05-28T15:10:50.708Z,8.15
2019-05-28T15:13:16.731Z,6.55
2019-05-28T15:15:42.732Z,4.03
2019-05-28T15:18:08.881Z,8.95
2019-05-28T15:20:35.592Z,3.75
2019-05-28T15:23:01.737Z,5.22
2019-05-28T15:25:27.843Z,4.58
2019-05-28T15:27:53.958Z,3.35
2019-05-28T15:30:20.673Z,4.80
2019-05-28T15:32:46.795Z,4.40
2019-05-28T15:35:14.069Z,3.75
2019-05-28T15:37:40.081Z,8.93
2019-05-28T15:40:06.967Z,11.43
2019-05-28T15:42:33.077Z,12.18
2019-05-28T15:44:59.248Z,4.67
2019-05-28T15:47:25.339Z,7.05
2019-05-28T15:49:51.455Z,7.08
2019-05-28T15:52:17.474Z,12.65
2019-05-28T15:54:43.592Z,7.80
2019-05-28T15:57:09.769Z,5.40
2019-05-28T15:59:35.829Z,5.67
2019-05-28T16:02:01.966Z,3.10
2019-05-28T16:04:28.107Z,5.60
2019-05-28T16:06:54.145Z,10.58
2019-05-28T16:09:20.308Z,5.47
2019-05-28T16:11:46.331Z,3.85
2019-05-28T16:14:12.369Z,6.50
2019-05-28T16:16:38.605Z,4.40
2019-05-28T16:19:04.717Z,4.05
2019-05-28T16:21:30.625Z,6.12
2019-05-28T16:23:56.764Z,6.62
2019-05-28T16:26:22.672Z,3.45
2019-05-28T16:28:48.703Z,2.05
2019-05-28T16:31:14.817Z,7.65
2019-05-28T16:33:40.823Z,7.80
2019-05-28T16:36:06.848Z,3.80
2019-05-28T16:38:32.993Z,8.65
2019-05-28T16:40:58.951Z,4.08
2019-05-28T16:43:25.056Z,2.83
2019-05-28T16:45:51.183Z,3.12
2019-05-28T16:48:17.198Z,4.75
2019-05-28T16:50:43.329Z,3.35
2019-05-28T16:53:09.454Z,6.03
2019-05-28T16:55:35.566Z,6.78
2019-05-28T16:58:01.725Z,11.45
2019-05-28T17:00:27.937Z,6.37
2019-05-28T17:02:54.076Z,5.30
2019-05-28T17:05:20.188Z,3.87
2019-05-28T17:07:46.691Z,5.53
2019-05-28T17:10:13.240Z,8.00
2019-05-28T17:12:39.268Z,6.65
2019-05-28T17:15:05.916Z,2.58
2019-05-28T17:17:32.030Z,2.45
2019-05-28T17:19:58.193Z,4.35
2019-05-28T17:22:24.300Z,2.80
2019-05-28T17:24:50.315Z,8.30
2019-05-28T17:27:16.320Z,3.40
2019-05-28T17:29:42.433Z,1.55
2019-05-28T17:32:08.817Z,2.02
2019-05-28T17:34:34.933Z,2.90
2019-05-28T17:37:01.049Z,1.47
2019-05-28T17:39:27.089Z,4.08
2019-05-28T17:41:53.108Z,1.00
2019-05-28T17:44:19.228Z,2.47
2019-05-28T17:46:45.331Z,2.83
2019-05-28T17:49:11.439Z,7.20
2019-05-28T17:51:37.459Z,13.43
2019-05-28T17:54:03.594Z,4.72
2019-05-28T17:56:29.601Z,8.28
2019-05-28T17:58:55.611Z,4.95
2019-05-28T18:01:21.624Z,5.55
2019-05-28T18:03:47.728Z,4.30
2019-05-28T18:06:13.849Z,9.28
2019-05-28T18:08:39.853Z,2.47
2019-05-28T18:11:05.795Z,1.77
2019-05-28T18:13:31.848Z,2.50
2019-05-28T18:15:57.840Z,3.65
2019-05-28T18:18:24.031Z,2.20
2019-05-28T18:20:50.339Z,0.93
2019-05-28T18:23:16.240Z,5.05
2019-05-28T18:25:42.351Z,3.12
2019-05-28T18:28:08.497Z,1.52
2019-05-28T18:30:34.535Z,0.78
2019-05-28T18:33:00.645Z,3.40
2019-05-28T18:35:26.782Z,4.25
2019-05-28T18:38:03.045Z,5.22
2019-05-28T18:40:20.724Z,6.00
2019-05-28T18:42:46.632Z,5.60
2019-05-28T18:45:14.435Z,4.37
2019-05-28T18:47:40.847Z,3.67
2019-05-28T18:50:07.264Z,6.67
2019-05-28T18:52:33.385Z,2.98
2019-05-28T18:54:59.528Z,3.05
2019-05-28T18:57:27.023Z,3.55
2019-05-28T18:59:53.133Z,4.67
2019-05-28T19:02:19.153Z,1.50
2019-05-28T19:04:45.081Z,4.40
2019-05-28T19:07:11.084Z,2.85
2019-05-28T19:09:36.990Z,7.85
2019-05-28T19:12:03.143Z,6.33
2019-05-28T19:14:29.046Z,2.85
2019-05-28T19:16:54.955Z,2.95
2019-05-28T19:19:21.067Z,1.27
2019-05-28T19:21:47.180Z,3.58
2019-05-28T19:24:13.237Z,3.12
2019-05-28T19:26:39.345Z,2.83
2019-05-28T19:29:05.406Z,1.80
2019-05-28T19:31:31.411Z,1.15
2019-05-28T19:33:57.515Z,3.42
2019-05-28T19:36:24.120Z,4.97
2019-05-28T19:38:51.324Z,1.05
2019-05-28T19:41:17.337Z,1.05
2019-05-28T19:43:43.452Z,1.70
2019-05-28T19:46:09.473Z,3.20
2019-05-28T19:48:35.369Z,1.35
2019-05-28T19:51:01.629Z,2.17
2019-05-28T19:53:27.542Z,8.73
2019-05-28T19:55:53.562Z,5.10
2019-05-28T19:58:19.707Z,2.95
2019-05-28T20:00:45.803Z,7.58
2019-05-28T20:03:11.968Z,4.00
2019-05-28T20:05:38.072Z,2.70
2019-05-28T20:08:04.098Z,0.88
2019-05-28T20:10:30.214Z,1.62
2019-05-28T20:12:56.330Z,3.30
2019-05-28T20:15:24.128Z,1.32
2019-05-28T20:17:50.497Z,4.08
2019-05-28T20:20:16.745Z,3.30
2019-05-28T20:22:42.787Z,4.15
2019-05-28T20:25:09.099Z,3.30
2019-05-28T20:27:35.213Z,1.92
2019-05-28T20:30:01.630Z,5.87
2019-05-28T20:32:27.793Z,5.08
2019-05-28T20:34:53.689Z,2.87
2019-05-28T20:37:19.840Z,5.42
2019-05-28T20:39:45.882Z,3.60
2019-05-28T20:42:24.429Z,1.67
2019-05-28T20:44:40.087Z,2.40
2019-05-28T20:47:06.968Z,7.03
2019-05-28T20:49:34.296Z,3.20
2019-05-28T20:52:00.691Z,1.65
2019-05-28T20:54:27.054Z,3.87
2019-05-28T20:56:54.523Z,1.30
2019-05-28T20:59:20.810Z,1.25
2019-05-28T21:01:47.616Z,1.52
2019-05-28T21:04:13.653Z,0.95
2019-05-28T21:06:39.598Z,3.02
2019-05-28T21:09:05.806Z,5.80
2019-05-28T21:11:31.880Z,4.30
2019-05-28T21:13:58.896Z,3.15
2019-05-28T21:16:25.137Z,3.98
2019-05-28T21:18:51.147Z,3.75
2019-05-28T21:21:17.057Z,5.90
2019-05-28T21:23:42.963Z,9.20
2019-05-28T21:26:09.083Z,8.90
2019-05-28T21:28:35.088Z,5.20
2019-05-28T21:31:02.118Z,2.15
2019-05-28T21:33:28.189Z,3.42
2019-05-28T21:35:55.196Z,7.47
2019-05-28T21:38:21.307Z,3.52
2019-05-28T21:40:47.414Z,1.98
2019-05-28T21:43:13.413Z,6.60
2019-05-28T21:45:39.554Z,1.77
2019-05-28T21:48:05.664Z,2.75
2019-05-28T21:50:31.758Z,3.17
2019-05-28T21:52:58.980Z,4.58
2019-05-28T21:55:25.082Z,2.60
2019-05-28T21:57:51.104Z,3.00
2019-05-28T22:00:25.767Z,3.62
2019-05-28T22:02:51.875Z,1.90
2019-05-28T22:05:17.996Z,3.87
2019-05-28T22:07:44.001Z,4.45
2019-05-28T22:10:11.122Z,2.15
2019-05-28T22:12:39.586Z,3.62
2019-05-28T22:15:06.092Z,4.95
2019-05-28T22:17:32.202Z,1.95
2019-05-28T22:19:58.326Z,1.65
2019-05-28T22:22:24.367Z,6.05
2019-05-28T22:24:51.149Z,4.08
2019-05-28T22:27:17.249Z,4.08
2019-05-28T22:29:43.153Z,2.10
2019-05-28T22:32:09.271Z,4.10
2019-05-28T22:34:35.172Z,2.15
2019-05-28T22:37:02.420Z,3.92
2019-05-28T22:39:29.675Z,0.88
2019-05-28T22:41:56.054Z,5.17
2019-05-28T22:44:22.068Z,5.47
2019-05-28T22:46:48.107Z,1.45
2019-05-28T22:49:14.161Z,5.05
2019-05-28T22:51:40.276Z,5.08
2019-05-28T22:54:06.411Z,3.30
2019-05-28T22:56:32.430Z,3.55
2019-05-28T22:58:58.531Z,1.10
2019-05-28T23:01:24.644Z,4.10
2019-05-28T23:03:50.662Z,7.25
2019-05-28T23:06:16.687Z,1.12
2019-05-28T23:08:42.702Z,2.17
2019-05-28T23:11:09.762Z,1.25
2019-05-28T23:13:46.344Z,1.20
2019-05-28T23:16:04.390Z,3.37
2019-05-28T23:18:30.618Z,4.42
2019-05-28T23:20:56.670Z,1.98
2019-05-28T23:23:22.672Z,6.83
2019-05-28T23:25:48.678Z,2.10
2019-05-28T23:28:14.687Z,2.77
2019-05-28T23:30:40.809Z,1.20
2019-05-28T23:33:09.926Z,3.25
2019-05-28T23:35:34.997Z,4.80
2019-05-28T23:38:01.000Z,2.55
2019-05-28T23:40:26.899Z,1.55
2019-05-28T23:42:52.910Z,2.55
2019-05-28T23:45:19.022Z,1.77
2019-05-28T23:47:45.023Z,1.75
2019-05-28T23:50:14.824Z,4.20
2019-05-28T23:52:39.448Z,1.35
2019-05-28T23:55:05.960Z,4.28
2019-05-28T23:57:32.106Z,1.25
2019-05-28T23:59:58.211Z,1.72
